Detall de PIREP

Printer-friendly versionPDF version

[2016/12/28 16:02:00]
Flight IATA:CT1004
Pilot Number:012
Company ICAO:CAT
Aircraft Type:DC3/A
PAX:19
Aircraft Registration:PAX
Departing Airport: LEDA
Destination Airport: LPPR
Alternate Airport:LECO
Online: VATSIM
Route:ALOSU G23 PPN G52 ZMR Z406 BEDAL T7 ASPOR
Flight Level:F090
No Slew and time accel
No pause
Crash detect
Detect pilot in Cockpit between each 30 and 45 minutes
16:02 Zero fuel Weight: 19801 Lbs, Fuel Weight: 4003 Lbs
16:02 VATSIM:LEDA 281430Z VRB01KT 1500 BR OVC001 02/02 Q1037
16:02 VATSIM:LPPR 281530Z 11005KT 080V150 CAVOK 18/05 Q1032
16:02 XMAS CHARTER
16:02 Parking Brakes off
16:06 Take-off
16:06 Take off Weight: 23782 Lbs
16:06 Wind: 000º @ 002 Knots Heading: 312º
16:06 POS N41º 43´ 37´´ E000º 32´ 13´´
16:06 Gear Up: 104 Knots
16:16 TOC
16:16 Fuel Weight: 3844 Lb
16:21 Wind:173º@008 Knots Heading: 322º Ground Speed: 160 Knots Altitude 9619ft
16:36 Wind:172º@007 Knots Heading: 294º Ground Speed: 167 Knots Altitude 9639 ft
16:51 Wind:165º@006 Knots Heading: 257º Ground Speed: 164 Knots Altitude 9675 ft
17:06 Wind:152º@004 Knots Heading: 257º Ground Speed: 165 Knots Altitude 9691 ft
17:21 Wind:174º@004 Knots Heading: 256º Ground Speed: 163 Knots Altitude 9619 ft
17:36 Wind:255º@002 Knots Heading: 254º Ground Speed: 162 Knots Altitude 9599 ft
17:51 Wind:272º@002 Knots Heading: 248º Ground Speed: 162 Knots Altitude 9586 ft
18:06 Wind:155º@007 Knots Heading: 262º Ground Speed: 166 Knots Altitude 9606 ft
18:21 Wind:157º@006 Knots Heading: 262º Ground Speed: 166 Knots Altitude 9599 ft
18:36 Wind:144º@011 Knots Heading: 262º Ground Speed: 167 Knots Altitude 9566 ft
18:40 TOD
18:40 Fuel Weight: 2204 Lb
18:40 TOC
18:40 Fuel Weight: 2197 Lb
18:40 TOD
18:40 Fuel Weight: 2196 Lb
18:49 Flaps:1 at 121 Knots
18:49 Flaps:2 at 126 Knots
18:49 Gear Down: 111 Knots
18:50 Flaps:3 at 98 Knots
18:51 Wind:006º@001 Knots Heading: 171º Ground Speed: 087 Knots Altitude 1240 ft
18:53 TouchDown:Rate -40 ft/min Speed: 69 Knots
18:54 VATSIM:LPPR 281830Z 00000KT 9000 NSC 09/07 Q1032
18:54 Land
18:54 Wind:000º@000 Knots
18:54 Heading: 165º
18:54 Flight Duration: 02:48
18:54 Landing Weight: 21898 Lbs
18:54 POS N41º 14´ 51´´ W008º 40´ 52´´
18:57 Parking brakes on
18:57 Block to Block Duration: 02:55
18:57 Final Fuel: 2085 Lbls
18:57 Spent Fuel: 1917 Lbls
18:57 Flight Length: 446 NM
18:57 TOD Land Length: 33 NM

Exportar CSV

Powered by Drupal - Modified by Danger4k